createdAt,value
2022-09-12T00:01:14.613Z,12.77
2022-09-12T00:03:42.181Z,12.77
2022-09-12T00:06:18.151Z,12.74
2022-09-12T00:08:51.974Z,12.69
2022-09-12T00:11:18.625Z,12.67
2022-09-12T00:13:45.612Z,12.66
2022-09-12T00:16:24.591Z,12.62
2022-09-12T00:18:54.687Z,12.55
2022-09-12T00:21:22.957Z,12.57
2022-09-12T00:23:52.402Z,12.61
2022-09-12T00:26:22.155Z,12.59
2022-09-12T00:28:52.029Z,12.56
2022-09-12T00:31:27.280Z,12.48
2022-09-12T00:33:57.110Z,12.56
2022-09-12T00:36:28.058Z,12.47
2022-09-12T00:38:54.924Z,12.48
2022-09-12T00:41:27.377Z,12.45
2022-09-12T00:43:58.606Z,12.47
2022-09-12T00:46:43.278Z,12.09
2022-09-12T00:49:27.393Z,12.12
2022-09-12T00:52:23.869Z,12.19
2022-09-12T00:55:19.626Z,12.22
2022-09-12T00:58:03.873Z,12.25
2022-09-12T01:00:30.578Z,12.23
2022-09-12T01:03:04.025Z,12.21
2022-09-12T01:05:34.094Z,12.17
2022-09-12T01:08:05.473Z,12.17
2022-09-12T01:10:38.611Z,12.15
2022-09-12T01:13:07.274Z,12.01
2022-09-12T01:15:34.865Z,12.07
2022-09-12T01:18:04.511Z,12.03
2022-09-12T01:20:53.362Z,12.04
2022-09-12T01:23:57.382Z,12.02
2022-09-12T01:26:42.310Z,12.06
2022-09-12T01:29:30.610Z,11.83
2022-09-12T01:32:06.369Z,11.64
2022-09-12T01:35:06.933Z,11.81
2022-09-12T01:37:41.843Z,11.85
2022-09-12T01:40:41.790Z,11.88
2022-09-12T01:43:28.787Z,11.94
2022-09-12T01:46:02.195Z,11.87
2022-09-12T01:48:38.178Z,11.85
2022-09-12T01:51:11.796Z,11.84
2022-09-12T01:54:16.813Z,11.85
2022-09-12T01:56:46.697Z,11.81
2022-09-12T01:59:29.731Z,11.83
2022-09-12T02:02:00.949Z,11.84
2022-09-12T02:04:34.391Z,11.84
2022-09-12T02:07:27.611Z,11.79
2022-09-12T02:10:17.275Z,11.74
2022-09-12T02:12:53.253Z,11.66
2022-09-12T02:15:24.345Z,11.64
2022-09-12T02:17:58.913Z,11.47
2022-09-12T02:20:47.900Z,11.37
2022-09-12T02:23:20.932Z,11.40
2022-09-12T02:25:51.489Z,11.51
2022-09-12T02:28:27.134Z,11.46
2022-09-12T02:31:26.922Z,11.42
2022-09-12T02:34:28.825Z,11.45
2022-09-12T02:37:07.926Z,11.43
2022-09-12T02:39:37.224Z,11.42
2022-09-12T02:42:06.506Z,11.38
2022-09-12T02:44:38.090Z,11.33
2022-09-12T02:47:28.399Z,11.32
2022-09-12T02:49:56.952Z,11.32
2022-09-12T02:52:26.795Z,11.34
2022-09-12T02:54:55.183Z,11.31
2022-09-12T02:57:23.249Z,11.36
2022-09-12T02:59:53.836Z,11.37
2022-09-12T03:02:35.665Z,11.34
2022-09-12T03:05:21.474Z,11.44
2022-09-12T03:08:00.255Z,11.45
2022-09-12T03:10:51.418Z,11.45
2022-09-12T03:13:49.761Z,11.48
2022-09-12T03:16:16.325Z,11.46
2022-09-12T03:18:58.115Z,11.44
2022-09-12T03:21:37.985Z,11.39
2022-09-12T03:24:11.603Z,11.40
2022-09-12T03:26:40.858Z,11.42
2022-09-12T03:29:08.395Z,11.32
2022-09-12T03:31:37.386Z,11.31
2022-09-12T03:34:04.029Z,11.28
2022-09-12T03:36:33.520Z,11.37
2022-09-12T03:39:02.483Z,11.40
2022-09-12T03:41:33.822Z,11.21
2022-09-12T03:44:00.384Z,11.07
2022-09-12T03:46:26.976Z,11.17
2022-09-12T03:48:55.656Z,11.17
2022-09-12T03:51:24.897Z,11.16
2022-09-12T03:53:51.848Z,10.80
2022-09-12T03:56:19.410Z,10.97
2022-09-12T03:58:48.274Z,11.05
2022-09-12T04:01:17.508Z,11.03
2022-09-12T04:03:46.498Z,11.05
2022-09-12T04:06:15.503Z,11.07
2022-09-12T04:08:45.885Z,11.06
2022-09-12T04:11:21.446Z,11.04
2022-09-12T04:13:52.878Z,10.97
2022-09-12T04:16:20.230Z,11.00
2022-09-12T04:18:46.903Z,10.98
2022-09-12T04:21:18.265Z,11.00
2022-09-12T04:23:47.443Z,10.99
2022-09-12T04:26:22.025Z,10.98
2022-09-12T04:28:48.716Z,10.96
2022-09-12T04:31:22.596Z,10.97
2022-09-12T04:34:01.178Z,10.82
2022-09-12T04:36:34.416Z,10.82
2022-09-12T04:39:02.500Z,10.84
2022-09-12T04:41:34.156Z,10.82
2022-09-12T04:44:05.512Z,10.82
2022-09-12T04:46:35.604Z,10.83
2022-09-12T04:49:05.684Z,10.78
2022-09-12T04:51:35.916Z,10.76
2022-09-12T04:54:08.506Z,10.68
2022-09-12T04:56:41.656Z,10.69
2022-09-12T04:59:09.171Z,10.66
2022-09-12T05:01:38.016Z,10.69
2022-09-12T05:04:04.818Z,10.70
2022-09-12T05:06:34.551Z,10.71
2022-09-12T05:09:08.500Z,10.77
2022-09-12T05:12:02.573Z,10.72
2022-09-12T05:14:24.518Z,10.79
2022-09-12T05:16:51.139Z,10.85
2022-09-12T05:19:17.776Z,10.91
2022-09-12T05:21:44.442Z,10.98
2022-09-12T05:24:11.609Z,11.05
2022-09-12T05:26:38.433Z,11.07
2022-09-12T05:29:07.801Z,11.14
2022-09-12T05:31:35.006Z,11.10
2022-09-12T05:34:05.915Z,11.15
2022-09-12T05:36:33.108Z,11.30
2022-09-12T05:39:03.798Z,11.29
2022-09-12T05:41:34.401Z,11.31
2022-09-12T05:44:07.717Z,11.14
2022-09-12T05:46:40.007Z,11.10
2022-09-12T05:49:11.121Z,10.99
2022-09-12T05:51:42.542Z,11.03
2022-09-12T05:54:13.841Z,11.10
2022-09-12T05:56:42.800Z,11.18
2022-09-12T05:59:21.229Z,11.29
2022-09-12T06:01:48.659Z,11.38
2022-09-12T06:04:16.117Z,11.33
2022-09-12T06:06:48.845Z,11.50
2022-09-12T06:09:16.907Z,11.40
2022-09-12T06:11:45.189Z,11.69
2022-09-12T06:14:14.024Z,11.92
2022-09-12T06:16:40.889Z,11.87
2022-09-12T06:19:19.117Z,12.00
2022-09-12T06:21:47.612Z,12.01
2022-09-12T06:24:16.816Z,11.87
2022-09-12T06:26:43.866Z,11.94
2022-09-12T06:29:11.673Z,12.00
2022-09-12T06:31:41.845Z,12.00
2022-09-12T06:34:11.536Z,12.13
2022-09-12T06:36:41.095Z,12.13
2022-09-12T06:39:11.432Z,12.11
2022-09-12T06:41:43.527Z,12.21
2022-09-12T06:44:17.879Z,12.29
2022-09-12T06:46:45.276Z,12.35
2022-09-12T06:49:12.420Z,12.41
2022-09-12T06:51:44.914Z,12.39
2022-09-12T06:54:17.831Z,12.47
2022-09-12T06:56:46.770Z,12.65
2022-09-12T06:59:13.608Z,12.60
2022-09-12T07:01:45.562Z,12.93
2022-09-12T07:04:12.142Z,12.97
2022-09-12T07:06:44.892Z,13.02
2022-09-12T07:09:14.160Z,13.07
2022-09-12T07:11:42.364Z,13.32
2022-09-12T07:14:12.276Z,13.26
2022-09-12T07:16:38.872Z,13.82
2022-09-12T07:19:08.081Z,13.87
2022-09-12T07:21:39.987Z,13.83
2022-09-12T07:24:10.634Z,14.01
2022-09-12T07:26:41.105Z,14.07
2022-09-12T07:29:35.483Z,14.24
2022-09-12T07:32:02.554Z,14.40
2022-09-12T07:34:29.139Z,14.58
2022-09-12T07:36:58.688Z,14.77
2022-09-12T07:39:25.477Z,14.89
2022-09-12T07:41:54.743Z,15.29
2022-09-12T07:44:22.084Z,15.53
2022-09-12T07:46:53.157Z,15.46
2022-09-12T07:49:22.455Z,15.58
2022-09-12T07:51:51.301Z,15.33
2022-09-12T07:54:18.744Z,15.53
2022-09-12T07:56:45.923Z,15.90
2022-09-12T07:59:25.356Z,16.10
2022-09-12T08:02:01.424Z,15.95
2022-09-12T08:04:27.932Z,15.62
2022-09-12T08:06:56.788Z,15.82
2022-09-12T08:09:23.723Z,15.99
2022-09-12T08:11:50.236Z,15.98
2022-09-12T08:14:18.157Z,16.25
2022-09-12T08:16:44.703Z,15.98
2022-09-12T08:19:12.052Z,16.13
2022-09-12T08:21:43.147Z,15.96
2022-09-12T08:24:12.381Z,16.15
2022-09-12T08:26:41.412Z,16.23
2022-09-12T08:29:13.165Z,16.40
2022-09-12T08:31:41.734Z,16.30
2022-09-12T08:34:10.475Z,16.57
2022-09-12T08:36:39.801Z,16.66
2022-09-12T08:39:07.579Z,16.73
2022-09-12T08:42:04.997Z,17.00
2022-09-12T08:44:43.680Z,16.92
2022-09-12T08:47:25.782Z,16.96
2022-09-12T08:50:10.870Z,17.09
2022-09-12T08:53:03.419Z,17.40
2022-09-12T08:55:35.619Z,17.37
2022-09-12T08:58:18.506Z,17.49
2022-09-12T09:01:10.018Z,17.33
2022-09-12T09:04:20.598Z,17.33
2022-09-12T09:07:05.208Z,17.52
2022-09-12T09:09:53.682Z,17.70
2022-09-12T09:12:45.123Z,17.76
2022-09-12T09:15:22.252Z,17.51
2022-09-12T09:17:54.118Z,17.63
2022-09-12T09:20:23.693Z,17.72
2022-09-12T09:22:57.086Z,18.03
2022-09-12T09:25:36.726Z,18.04
2022-09-12T09:28:14.426Z,18.11
2022-09-12T09:30:43.548Z,18.01
2022-09-12T09:33:24.206Z,18.12
2022-09-12T09:36:18.679Z,18.26
2022-09-12T09:38:49.782Z,18.32
2022-09-12T09:41:42.303Z,18.42
2022-09-12T09:44:09.008Z,18.42
2022-09-12T09:46:38.774Z,18.31
2022-09-12T09:49:09.546Z,18.58
2022-09-12T09:51:41.940Z,18.59
2022-09-12T09:54:21.247Z,18.87
2022-09-12T09:56:50.420Z,18.82
2022-09-12T09:59:30.144Z,18.95
2022-09-12T10:02:05.938Z,18.92
2022-09-12T10:04:43.275Z,19.17
2022-09-12T10:07:19.896Z,19.08
2022-09-12T10:10:18.126Z,19.31
2022-09-12T10:12:47.748Z,19.40
2022-09-12T10:15:22.786Z,19.38
2022-09-12T10:17:50.761Z,19.24
2022-09-12T10:20:40.025Z,19.57
2022-09-12T10:23:18.797Z,19.58
2022-09-12T10:25:56.979Z,19.71
2022-09-12T10:28:34.344Z,19.90
2022-09-12T10:31:06.166Z,19.71
2022-09-12T10:33:42.123Z,19.89
2022-09-12T10:36:11.396Z,19.92
2022-09-12T10:38:59.203Z,20.02
2022-09-12T10:41:27.956Z,20.01
2022-09-12T10:44:09.892Z,20.21
2022-09-12T10:46:36.797Z,20.24
2022-09-12T10:49:13.617Z,20.27
2022-09-12T10:51:43.162Z,20.03
2022-09-12T10:54:13.241Z,20.17
2022-09-12T10:56:57.553Z,20.52
2022-09-12T10:59:39.087Z,20.56
2022-09-12T11:02:25.608Z,20.44
2022-09-12T11:05:11.063Z,20.34
2022-09-12T11:07:40.584Z,20.40
2022-09-12T11:10:18.884Z,20.65
2022-09-12T11:13:06.099Z,20.89
2022-09-12T11:15:38.600Z,20.94
2022-09-12T11:18:23.677Z,20.88
2022-09-12T11:21:15.034Z,20.84
2022-09-12T11:24:12.581Z,20.63
2022-09-12T11:27:05.682Z,20.79
2022-09-12T11:29:47.250Z,20.91
2022-09-12T11:32:16.967Z,20.98
2022-09-12T11:35:17.970Z,20.85
2022-09-12T11:37:46.812Z,21.02
2022-09-12T11:40:20.595Z,21.05
2022-09-12T11:42:51.948Z,21.28
2022-09-12T11:45:57.120Z,21.34
2022-09-12T11:48:38.547Z,21.49
2022-09-12T11:51:16.122Z,21.68
2022-09-12T11:53:49.980Z,21.66
2022-09-12T11:56:22.319Z,21.67
2022-09-12T11:59:03.210Z,21.64
2022-09-12T12:01:44.970Z,21.64
2022-09-12T12:04:24.958Z,21.55
2022-09-12T12:07:03.323Z,21.68
2022-09-12T12:09:31.367Z,21.81
2022-09-12T12:12:01.207Z,21.69
2022-09-12T12:14:38.823Z,21.68
2022-09-12T12:17:13.995Z,21.44
2022-09-12T12:19:41.949Z,21.63
2022-09-12T12:22:17.083Z,21.76
2022-09-12T12:25:05.163Z,21.84
2022-09-12T12:27:49.094Z,21.96
2022-09-12T12:30:30.875Z,22.07
2022-09-12T12:33:18.223Z,22.04
2022-09-12T12:36:02.449Z,21.85
2022-09-12T12:38:39.154Z,21.88
2022-09-12T12:41:17.987Z,21.94
2022-09-12T12:43:48.375Z,22.13
2022-09-12T12:46:19.320Z,22.13
2022-09-12T12:48:58.232Z,22.32
2022-09-12T12:51:36.192Z,22.38
2022-09-12T12:54:11.087Z,22.36
2022-09-12T12:56:42.560Z,22.36
2022-09-12T12:59:25.822Z,22.40
2022-09-12T13:02:01.053Z,22.30
2022-09-12T13:04:32.898Z,22.47
2022-09-12T13:06:59.486Z,22.61
2022-09-12T13:09:29.986Z,22.74
2022-09-12T13:12:09.257Z,22.74
2022-09-12T13:14:55.345Z,22.93
2022-09-12T13:17:30.510Z,22.76
2022-09-12T13:20:29.668Z,22.87
2022-09-12T13:22:57.122Z,22.88
2022-09-12T13:25:23.970Z,23.00
2022-09-12T13:28:07.678Z,23.00
2022-09-12T13:30:39.440Z,22.95
2022-09-12T13:33:18.472Z,22.90
2022-09-12T13:36:03.846Z,22.77
2022-09-12T13:38:55.146Z,22.91
2022-09-12T13:41:46.468Z,23.27
2022-09-12T13:44:21.755Z,23.36
2022-09-12T13:46:54.075Z,23.36
2022-09-12T13:49:26.874Z,23.41
2022-09-12T13:52:06.878Z,23.38
2022-09-12T13:54:37.930Z,23.36
2022-09-12T13:57:05.506Z,23.22
2022-09-12T13:59:45.311Z,23.29
2022-09-12T14:02:21.010Z,23.29
2022-09-12T14:05:11.969Z,23.24
2022-09-12T14:07:44.806Z,23.35
2022-09-12T14:10:21.053Z,23.33
2022-09-12T14:12:50.882Z,23.29
2022-09-12T14:15:25.653Z,23.26
2022-09-12T14:18:01.461Z,23.35
2022-09-12T14:20:36.288Z,23.42
2022-09-12T14:23:19.032Z,23.53
2022-09-12T14:25:49.843Z,23.41
2022-09-12T14:28:23.183Z,23.39
2022-09-12T14:31:05.217Z,23.39
2022-09-12T14:33:49.237Z,23.57
2022-09-12T14:36:33.818Z,23.47
2022-09-12T14:39:07.352Z,23.56
2022-09-12T14:41:41.091Z,23.43
2022-09-12T14:44:16.786Z,23.61
2022-09-12T14:46:44.709Z,23.77
2022-09-12T14:49:19.865Z,23.96
2022-09-12T14:51:52.295Z,23.97
2022-09-12T14:54:27.686Z,24.06
2022-09-12T14:57:00.890Z,23.98
2022-09-12T14:59:30.318Z,23.81
2022-09-12T15:02:21.910Z,23.68
2022-09-12T15:05:03.707Z,23.66
2022-09-12T15:07:42.697Z,23.58
2022-09-12T15:10:18.825Z,23.73
2022-09-12T15:12:48.183Z,23.48
2022-09-12T15:15:23.215Z,23.30
2022-09-12T15:17:49.791Z,23.08
2022-09-12T15:20:16.805Z,23.30
2022-09-12T15:22:45.965Z,23.28
2022-09-12T15:25:18.074Z,23.30
2022-09-12T15:27:47.474Z,23.38
2022-09-12T15:30:14.085Z,23.40
2022-09-12T15:32:46.219Z,23.54
2022-09-12T15:35:17.994Z,23.54
2022-09-12T15:37:49.254Z,23.34
2022-09-12T15:40:16.253Z,23.46
2022-09-12T15:42:47.462Z,23.38
2022-09-12T15:45:21.889Z,23.60
2022-09-12T15:47:50.980Z,23.58
2022-09-12T15:50:19.626Z,23.68
2022-09-12T15:52:46.800Z,23.68
2022-09-12T15:55:23.028Z,23.53
2022-09-12T15:57:50.645Z,23.60
2022-09-12T16:00:18.479Z,23.66
2022-09-12T16:02:54.468Z,23.60
2022-09-12T16:05:24.357Z,23.68
2022-09-12T16:07:57.644Z,23.68
2022-09-12T16:10:30.139Z,23.74
2022-09-12T16:12:57.624Z,23.50
2022-09-12T16:15:27.397Z,23.52
2022-09-12T16:17:58.712Z,23.69
2022-09-12T16:20:25.364Z,23.69
2022-09-12T16:22:52.053Z,23.69
2022-09-12T16:25:18.733Z,23.66
2022-09-12T16:27:47.825Z,23.38
2022-09-12T16:30:14.523Z,23.48
2022-09-12T16:32:46.645Z,23.43
2022-09-12T16:35:13.201Z,23.25
2022-09-12T16:37:39.776Z,23.25
2022-09-12T16:40:07.466Z,23.20
2022-09-12T16:42:34.139Z,23.12
2022-09-12T16:45:05.457Z,23.03
2022-09-12T16:47:32.948Z,22.95
2022-09-12T16:49:59.669Z,22.82
2022-09-12T16:52:28.774Z,22.71
2022-09-12T16:54:55.429Z,22.62
2022-09-12T16:57:23.425Z,22.51
2022-09-12T16:59:52.247Z,22.45
2022-09-12T17:02:18.856Z,22.31
2022-09-12T17:04:45.428Z,22.20
2022-09-12T17:07:16.558Z,21.92
2022-09-12T17:09:47.364Z,21.76
2022-09-12T17:12:16.883Z,21.67
2022-09-12T17:14:43.458Z,21.55
2022-09-12T17:17:10.192Z,21.48
2022-09-12T17:19:37.086Z,21.41
2022-09-12T17:22:03.714Z,21.34
2022-09-12T17:24:33.049Z,21.26
2022-09-12T17:26:59.761Z,21.17
2022-09-12T17:29:26.638Z,21.11
2022-09-12T17:31:55.010Z,21.00
2022-09-12T17:34:21.599Z,20.91
2022-09-12T17:36:48.534Z,20.84
2022-09-12T17:39:17.601Z,20.69
2022-09-12T17:41:46.010Z,20.65
2022-09-12T17:44:14.979Z,20.56
2022-09-12T17:46:42.381Z,20.46
2022-09-12T17:49:15.471Z,20.19
2022-09-12T17:51:43.835Z,20.15
2022-09-12T17:54:17.944Z,19.99
2022-09-12T17:56:46.662Z,20.02
2022-09-12T17:59:18.985Z,19.90
2022-09-12T18:02:04.282Z,19.86
2022-09-12T18:04:33.793Z,19.77
2022-09-12T18:07:02.575Z,19.34
2022-09-12T18:09:30.671Z,19.35
2022-09-12T18:11:57.476Z,19.33
2022-09-12T18:14:24.916Z,19.33
2022-09-12T18:16:54.098Z,19.22
2022-09-12T18:19:20.785Z,19.16
2022-09-12T18:21:52.078Z,19.04
2022-09-12T18:24:18.633Z,19.01
2022-09-12T18:26:45.382Z,18.97
2022-09-12T18:29:13.239Z,18.85
2022-09-12T18:31:42.741Z,18.83
2022-09-12T18:34:13.707Z,18.76
2022-09-12T18:36:42.263Z,18.63
2022-09-12T18:39:09.454Z,18.69
2022-09-12T18:41:39.164Z,18.68
2022-09-12T18:44:06.734Z,18.64
2022-09-12T18:46:37.421Z,18.58
2022-09-12T18:49:09.481Z,18.58
2022-09-12T18:51:41.780Z,18.56
2022-09-12T18:54:13.178Z,18.41
2022-09-12T18:56:43.492Z,18.43
2022-09-12T18:59:12.859Z,18.45
2022-09-12T19:01:42.243Z,18.36
2022-09-12T19:04:11.213Z,18.31
2022-09-12T19:06:42.082Z,18.19
2022-09-12T19:09:10.425Z,18.08
2022-09-12T19:11:39.442Z,17.96
2022-09-12T19:14:09.619Z,17.95
2022-09-12T19:16:36.789Z,17.94
2022-09-12T19:19:06.180Z,17.94
2022-09-12T19:21:34.370Z,17.85
2022-09-12T19:24:04.226Z,17.93
2022-09-12T19:26:33.873Z,17.90
2022-09-12T19:29:03.035Z,17.84
2022-09-12T19:31:31.004Z,17.79
2022-09-12T19:34:05.670Z,17.81
2022-09-12T19:36:47.871Z,17.67
2022-09-12T19:39:16.492Z,17.67
2022-09-12T19:41:43.723Z,17.65
2022-09-12T19:44:11.491Z,17.64
2022-09-12T19:46:40.488Z,17.59
2022-09-12T19:49:07.496Z,17.54
2022-09-12T19:51:36.959Z,17.48
2022-09-12T19:54:04.089Z,17.48
2022-09-12T19:56:32.957Z,17.48
2022-09-12T19:58:59.626Z,17.37
2022-09-12T20:01:31.529Z,17.29
2022-09-12T20:04:00.770Z,17.24
2022-09-12T20:06:29.627Z,17.22
2022-09-12T20:08:59.419Z,17.13
2022-09-12T20:11:26.040Z,17.10
2022-09-12T20:13:53.396Z,16.81
2022-09-12T20:16:29.352Z,16.85
2022-09-12T20:19:02.332Z,16.81
2022-09-12T20:21:31.940Z,16.76
2022-09-12T20:24:11.916Z,16.53
2022-09-12T20:26:38.982Z,16.65
2022-09-12T20:29:06.776Z,16.65
2022-09-12T20:31:36.811Z,16.66
2022-09-12T20:34:04.889Z,16.63
2022-09-12T20:36:34.626Z,16.55
2022-09-12T20:39:02.542Z,16.51
2022-09-12T20:41:34.458Z,16.46
2022-09-12T20:44:01.277Z,16.51
2022-09-12T20:46:28.907Z,16.60
2022-09-12T20:48:58.786Z,16.47
2022-09-12T20:51:30.375Z,16.50
2022-09-12T20:54:04.672Z,16.43
2022-09-12T20:56:39.265Z,16.35
2022-09-12T20:59:05.871Z,16.29
2022-09-12T21:01:33.013Z,16.25
2022-09-12T21:04:02.139Z,16.21
2022-09-12T21:06:29.055Z,16.22
2022-09-12T21:08:59.878Z,16.30
2022-09-12T21:11:29.284Z,16.27
2022-09-12T21:13:58.051Z,16.20
2022-09-12T21:16:26.930Z,16.10
2022-09-12T21:18:59.749Z,16.07
2022-09-12T21:21:27.023Z,16.05
2022-09-12T21:23:57.174Z,16.00
2022-09-12T21:26:26.747Z,15.91
2022-09-12T21:28:53.269Z,15.94
2022-09-12T21:31:24.718Z,15.88
2022-09-12T21:33:56.313Z,15.88
2022-09-12T21:36:24.424Z,15.86
2022-09-12T21:38:50.969Z,15.86
2022-09-12T21:41:18.428Z,15.85
2022-09-12T21:43:47.601Z,15.76
2022-09-12T21:46:14.310Z,15.79
2022-09-12T21:48:46.175Z,15.69
2022-09-12T21:51:12.695Z,15.67
2022-09-12T21:53:39.266Z,15.64
2022-09-12T21:56:08.678Z,15.67
2022-09-12T21:58:36.323Z,15.53
2022-09-12T22:01:03.572Z,15.53
2022-09-12T22:03:32.516Z,15.55
2022-09-12T22:06:04.840Z,15.51
2022-09-12T22:08:33.564Z,15.45
2022-09-12T22:11:07.951Z,15.39
2022-09-12T22:13:35.366Z,15.37
2022-09-12T22:16:03.318Z,15.37
2022-09-12T22:18:35.266Z,15.34
2022-09-12T22:21:12.807Z,15.38
2022-09-12T22:23:58.300Z,15.29
2022-09-12T22:26:27.923Z,15.30
2022-09-12T22:28:54.670Z,15.26
2022-09-12T22:31:23.657Z,15.28
2022-09-12T22:33:54.916Z,15.29
2022-09-12T22:36:21.434Z,15.05
2022-09-12T22:38:48.054Z,15.06
2022-09-12T22:41:19.354Z,15.00
2022-09-12T22:43:46.040Z,15.00
2022-09-12T22:46:14.909Z,15.02
2022-09-12T22:48:43.935Z,15.05
2022-09-12T22:51:11.000Z,14.98
2022-09-12T22:53:37.641Z,14.98
2022-09-12T22:56:05.597Z,14.97
2022-09-12T22:58:33.808Z,14.94
2022-09-12T23:01:00.481Z,14.94
2022-09-12T23:03:27.530Z,14.89
2022-09-12T23:05:54.162Z,14.92
2022-09-12T23:08:20.753Z,14.88
2022-09-12T23:10:47.376Z,14.89
2022-09-12T23:13:14.135Z,14.88
2022-09-12T23:15:43.042Z,14.81
2022-09-12T23:18:09.685Z,14.87
2022-09-12T23:20:36.212Z,14.80
2022-09-12T23:23:02.894Z,14.81
2022-09-12T23:25:32.002Z,14.80
2022-09-12T23:27:58.696Z,14.71
2022-09-12T23:30:28.170Z,14.72
2022-09-12T23:32:58.029Z,14.76
2022-09-12T23:35:27.179Z,14.71
2022-09-12T23:37:53.675Z,14.66
2022-09-12T23:40:20.285Z,14.66
2022-09-12T23:42:49.229Z,14.64
2022-09-12T23:45:15.800Z,14.63
2022-09-12T23:47:44.955Z,14.53
2022-09-12T23:50:13.641Z,14.52
2022-09-12T23:52:40.124Z,14.55
2022-09-12T23:55:07.392Z,14.57
2022-09-12T23:57:33.946Z,14.55
